Updated17/01/2020 14:30 
 

GeoURL
free counters
Scottish Weather Network UK Weather Network Cumulus Top Weather Sites

Peebles Weather - Nearby METAR Reports

Raw Data, Raw Data Expanded

Ignore low humidity and Dew Point values. Something wrong with the sensor.
Daytime temperatures are in direct sunlight so may be higher than official air temperature values.
As with any other website, we log your IP address and browser type in the server logs for diagnostic reasons. Cookies are used to record visit time and gauges preferences. No personal information is stored or processed.

All times are in local time (GMT, or BST in summer) unless specified.

2020/01/17 14:20 EGPH 171420Z 24012KT 9999 BKN024 06/03 Q1005
5.5°C 0.0 mm 0.0 mm 13.2 mm 6.4 mph 12.1 mph 1000.8 hPa 71% X-Ray Solar Flare Level
Planetary K-Index
Planetary K-Index History
Station Warn Rain Snow Flood Wind Ltng Heat Cold Glob Moon Temp Rain 1h Rain Fri Rain 24h Wind 10m Gust Pressure Hum Proton Levels

1.098 m Last Quarter Cold F2-W F: A: Kp:0 SSN:0

METAR Reports

 

EGPH - Edinburgh Airpor, United Kingdom
Distance from station: NNW 22mi, 36km
Updated: 17/01/2020 14:20
Mostly cloudy
Mostly cloudy
 Wind from WSW
Wind: WSW 14 mph , 22 km/h
Temperature: 6°C
Wind Chill: 2°C
Dew Point: 3°C
Humidity: 81%
Barometer: 1005 hPa
Clouds: Mostly cloudy
Visibility: 6 miles , 10 km
Cloud details: Mostly cloudy 732 m
2020/01/17 14:20 EGPH 171420Z 24012KT 9999 BKN024 06/03 Q1005
EGOM - Spadeadam, United Kingdom
Distance from station: SSE 49mi, 79km
Updated: 17/01/2020 13:50
Mostly cloudy
Mostly cloudy
 Wind from WSW
Wind: WSW 16 mph , 26 km/h
Temperature: 3°C
Wind Chill: -2°C
Dew Point: 2°C
Humidity: 93%
Barometer: 1005 hPa
Clouds: Mostly cloudy
Visibility: 6 miles , 10 km
Cloud details: Mostly cloudy 3658 m
2020/01/17 13:50 EGOM 171350Z AUTO 25014KT 9999 BKN120/// 03/02 Q1005
 
EGNC - Carlisle, United Kingdom
Distance from station: SSE 51mi, 82km
Updated: 17/01/2020 14:20
Partly cloudy
Partly cloudy
 Wind from W
Wind: W 12 mph , 19 km/h
Temperature: 5°C
Wind Chill: 1°C
Dew Point: 3°C
Humidity: 87%
Barometer: 1007 hPa
Clouds: Partly cloudy
Visibility: 6 miles , 10 km
Cloud details: Partly cloudy 1067 m
2020/01/17 14:20 EGNC 171420Z 26010KT 9999 SCT035 05/03 Q1007
EGPF - Glasgow Airport, United Kingdom
Distance from station: WNW 51mi, 82km
Updated: 17/01/2020 14:20
Light rain, Thunderstorm
Light rain, Thunderstorm
 Wind from WSW
Wind: WSW 10 mph , 17 km/h
Temperature: 6°C
Wind Chill: 3°C
Dew Point: 3°C
Humidity: 81%
Barometer: 1006 hPa
Summary: Light rain
Clouds: Thunderstorm
Visibility: 6 miles , 10 km
Cloud details: Partly cloudy 975 m
Mostly cloudy 1250 m
Mostly cloudy 1494 m
2020/01/17 14:20 EGPF 171420Z AUTO 25009KT 9999 -RA SCT032/// BKN041/// BKN049/// //////TCU 06/03 Q1006
 
EGQL - Leuchars Raf, United Kingdom
Distance from station: NNE 53mi, 85km
Updated: 17/01/2020 13:50
Few Clouds
Few Clouds
 Wind from W
Wind: W 18 mph , 30 km/h
Temperature: 6°C
Wind Chill: 2°C
Dew Point: 3°C
Humidity: 81%
Barometer: 1003 hPa
Clouds: Few Clouds
Visibility: 6 miles , 10 km
Cloud details: Few Clouds 1341 m
2020/01/17 13:50 EGQL 171350Z 26016KT 9999 FEW044 06/03 Q1003 BLU
EGPK - Prestwick(Civ/Na, United Kingdom
Distance from station: W 55mi, 89km
Updated: 17/01/2020 14:20
Mostly cloudy
Mostly cloudy
 Wind from SW
Wind: SW 15 mph , 24 km/h
Temperature: 7°C
Wind Chill: 3°C
Dew Point: 3°C
Humidity: 76%
Barometer: 1007 hPa
Clouds: Mostly cloudy
Visibility: 6 miles , 10 km
Cloud details: Few Clouds 610 m
Mostly cloudy 732 m
2020/01/17 14:20 EGPK 171420Z 23013KT 9999 FEW020 BKN024 07/03 Q1007
 
EGPN - Dundee/Riverside, United Kingdom
Distance from station: N 56mi, 90km
Updated: 17/01/2020 14:20
Few Clouds
Few Clouds
 Wind from WSW
Wind: WSW 14 mph , 22 km/h
Temperature: 6°C
Wind Chill: 2°C
Dew Point: 4°C
Humidity: 87%
Barometer: 1003 hPa
Clouds: Few Clouds
Visibility: 6 miles , 10 km
Cloud details: Few Clouds 762 m
2020/01/17 14:20 EGPN 171420Z 25012KT 9999 FEW025 06/04 Q1003
EGNT - Newcastle, United Kingdom
Distance from station: SE 72mi, 116km
Updated: 17/01/2020 14:20
Few Clouds
Few Clouds
 Wind from W
Wind: W 13 mph , 20 km/h
Temperature: 5°C
Wind Chill: 1°C
Dew Point: 3°C
Humidity: 87%
Barometer: 1006 hPa
Clouds: Few Clouds
Visibility: 6 miles , 10 km
Cloud details: Few Clouds 1219 m
2020/01/17 14:20 EGNT 171420Z 26011KT 9999 FEW040 05/03 Q1006
 
EGNV - Tees-Side, United Kingdom
Distance from station: SE 104mi, 168km
Updated: 17/01/2020 14:20
Few Clouds
Few Clouds
 Wind from W
Wind: W 10 mph , 17 km/h
Temperature: 5°C
Wind Chill: 2°C
Dew Point: 2°C
Humidity: 81%
Barometer: 1007 hPa
Clouds: Few Clouds
Visibility: 6 miles , 10 km
Cloud details: Few Clouds 610 m
2020/01/17 14:20 EGNV 171420Z 26009KT 9999 FEW020 05/02 Q1007
EGPD - Aberdeen/Dyce, United Kingdom
Distance from station: NNE 114mi, 183km
Updated: 17/01/2020 14:20
Clear
Clear
 Wind from SW
Wind: SW 10 mph , 17 km/h
Temperature: 7°C
Wind Chill: 4°C
Dew Point: 1°C
Humidity: 66%
Barometer: 1002 hPa
Clouds: Clear
Visibility: 6 miles , 10 km
2020/01/17 14:20 EGPD 171420Z AUTO 22009KT 9999 NCD 07/01 Q1002 NOSIG
 
EGNS - Isle Of Man/Rona, United Kingdom
Distance from station: SSW 122mi, 197km
Updated: 17/01/2020 14:20
Few Clouds
Few Clouds
 Wind from W
Wind: W 15 mph , 24 km/h
Temperature: 7°C
Wind Chill: 3°C
Dew Point: 3°C
Humidity: 76%
Barometer: 1009 hPa
Clouds: Few Clouds
Visibility: 6 miles , 10 km
Cloud details: Few Clouds 549 m
2020/01/17 14:20 EGNS 171420Z 26013KT 230V290 9999 FEW018 07/03 Q1009 NOSIG
EGAC - Belfast Harbour, United Kingdom
Distance from station: WSW 128mi, 206km
Updated: 17/01/2020 14:20
Light rain, Mostly cloudy
Light rain, Mostly cloudy
 Wind from W
Wind: W 8 mph , 13 km/h
Temperature: 5°C
Wind Chill: 2°C
Dew Point: 3°C
Humidity: 87%
Barometer: 1009 hPa
Summary: Light rain
Clouds: Mostly cloudy
Visibility: 6 miles , 10 km
Cloud details: Partly cloudy 792 m
Mostly cloudy 1006 m
Mostly cloudy 1189 m
2020/01/17 14:20 EGAC 171420Z AUTO 26007KT 9999 -RA SCT026/// BKN033/// BKN039/// 05/03 Q1009
 
EGPE - Inverness/Dalcro, United Kingdom
Distance from station: NNW 134mi, 215km
Updated: 17/01/2020 14:20
Few Clouds
Few Clouds
 Wind from SSW
Wind: SSW 15 mph , 24 km/h
Temperature: 6°C
Wind Chill: 2°C
Dew Point: 2°C
Humidity: 76%
Barometer: 1001 hPa
Clouds: Few Clouds
Visibility: 6 miles , 10 km
Cloud details: Few Clouds 914 m
2020/01/17 14:20 EGPE 171420Z 21013KT 9999 FEW030 06/02 Q1001
XHTML 1.1 | CSS